Time;durP1;ratioP1;P1;durP2;ratioP2;P2;SDS_P1;SDS_P2;PMS_P1;PMS_P2;Temp;Humidity;BMP_temperature;BMP_pressure;BME280_temperature;BME280_humidity;BME280_pressure;Samples;Min_cycle;Max_cycle;Signal;HPM_P1;HPM_P2
2022/12/21 00:01:53;;;;;;;40.43;22.10;;;9.30;99.90;;;;;;5038412;28;20182;-57
2022/12/21 00:04:19;;;;;;;39.43;21.23;;;9.20;99.90;;;;;;5042164;28;20198;-57
2022/12/21 00:06:44;;;;;;;41.33;21.60;;;9.20;99.90;;;;;;5034389;28;20202;-57
2022/12/21 00:09:12;;;;;;;41.37;22.53;;;9.20;99.90;;;;;;5035317;28;20201;-57
2022/12/21 00:11:38;;;;;;;44.80;23.10;;;9.20;99.90;;;;;;5034833;28;20217;-57
2022/12/21 00:14:05;;;;;;;37.63;22.23;;;9.30;99.90;;;;;;5034863;28;20476;-57
2022/12/21 00:16:33;;;;;;;42.00;21.60;;;9.20;99.90;;;;;;5034895;28;20190;-55
2022/12/21 00:19:00;;;;;;;40.23;22.10;;;9.20;99.90;;;;;;5043437;28;20437;-56
2022/12/21 00:21:32;;;;;;;42.30;23.90;;;9.20;99.90;;;;;;5033427;28;20440;-56
2022/12/21 00:23:59;;;;;;;39.57;22.27;;;9.20;99.90;;;;;;5017085;28;20432;-56
2022/12/21 00:26:27;;;;;;;43.83;22.97;;;9.10;99.90;;;;;;5034977;28;20550;-56
2022/12/21 00:28:53;;;;;;;39.20;21.37;;;9.10;99.90;;;;;;5034417;28;20440;-56
2022/12/21 00:31:34;;;;;;;45.43;22.00;;;9.10;99.90;;;;;;5037933;28;20436;-56
2022/12/21 00:34:00;;;;;;;39.27;21.47;;;9.00;99.90;;;;;;5032722;28;20575;-56
2022/12/21 00:36:28;;;;;;;39.97;22.57;;;9.00;99.90;;;;;;5034253;28;20432;-56
2022/12/21 00:38:54;;;;;;;38.67;20.73;;;9.00;99.90;;;;;;5035605;28;20441;-56
2022/12/21 00:41:21;;;;;;;36.53;20.43;;;9.00;99.90;;;;;;5034835;28;20467;-56
2022/12/21 00:43:49;;;;;;;34.00;18.30;;;9.00;99.90;;;;;;5034797;28;20442;-55
2022/12/21 00:46:18;;;;;;;37.23;18.67;;;8.90;99.90;;;;;;5033301;28;20447;-56
2022/12/21 00:48:44;;;;;;;33.00;18.13;;;8.90;99.90;;;;;;5040279;28;20428;-55
2022/12/21 00:51:12;;;;;;;38.17;18.23;;;8.90;99.90;;;;;;5035482;28;20545;-55
2022/12/21 00:53:38;;;;;;;28.77;16.67;;;8.80;99.90;;;;;;5035629;28;20675;-55
2022/12/21 00:56:05;;;;;;;28.43;15.80;;;8.90;99.90;;;;;;5035143;28;20440;-55
2022/12/21 00:58:32;;;;;;;27.30;15.50;;;8.90;99.90;;;;;;5035594;28;20444;-54
2022/12/21 01:00:59;;;;;;;27.17;15.83;;;8.90;99.90;;;;;;5036019;28;20444;-54
2022/12/21 01:03:28;;;;;;;29.33;15.83;;;8.80;99.90;;;;;;5038258;28;20451;-55
2022/12/21 01:05:54;;;;;;;43.93;16.97;;;8.80;99.90;;;;;;5041153;28;20441;-55
2022/12/21 01:08:21;;;;;;;27.60;14.60;;;8.80;99.90;;;;;;5050350;28;20432;-55
2022/12/21 01:10:47;;;;;;;28.30;15.60;;;8.80;99.90;;;;;;5031334;28;20440;-55
2022/12/21 01:13:14;;;;;;;27.97;15.63;;;8.80;99.90;;;;;;5046955;28;20503;-55
2022/12/21 01:15:44;;;;;;;32.60;15.90;;;8.80;99.90;;;;;;5049093;28;20208;-55
2022/12/21 01:18:12;;;;;;;27.13;14.40;;;8.80;99.90;;;;;;5050556;28;20566;-55
2022/12/21 01:20:40;;;;;;;23.33;13.17;;;8.80;99.90;;;;;;5050204;28;20436;-55
2022/12/21 01:23:06;;;;;;;22.73;13.13;;;8.80;99.90;;;;;;5048101;28;20432;-55
2022/12/21 01:25:31;;;;;;;21.67;12.67;;;8.80;99.90;;;;;;5050163;28;20601;-55
2022/12/21 01:27:57;;;;;;;23.60;12.60;;;8.80;99.90;;;;;;5052252;28;20583;-55
2022/12/21 01:30:22;;;;;;;21.67;11.90;;;8.70;99.90;;;;;;5054506;28;20171;-55
2022/12/21 01:32:48;;;;;;;29.60;12.93;;;8.70;99.90;;;;;;5053245;28;20585;-55
2022/12/21 01:35:13;;;;;;;21.70;12.67;;;8.70;99.90;;;;;;5054407;28;20532;-55
2022/12/21 01:37:39;;;;;;;24.13;12.40;;;8.70;99.90;;;;;;5053500;28;20245;-55
2022/12/21 01:40:05;;;;;;;25.47;11.90;;;8.70;99.90;;;;;;5052594;28;20198;-55
2022/12/21 01:42:31;;;;;;;25.33;11.70;;;8.70;99.90;;;;;;5052086;28;20194;-57
2022/12/21 01:45:06;;;;;;;32.17;13.67;;;8.60;99.90;;;;;;5053277;28;20930;-55
2022/12/21 01:47:46;;;;;;;26.20;12.30;;;8.70;99.90;;;;;;5053704;28;20648;-55
2022/12/21 01:50:44;;;;;;;22.30;11.70;;;8.60;99.90;;;;;;5053832;28;20451;-55
2022/12/21 01:53:33;;;;;;;26.00;11.93;;;8.60;99.90;;;;;;5052642;28;20468;-57
2022/12/21 01:56:02;;;;;;;22.10;11.67;;;8.70;99.90;;;;;;5046215;28;20455;-55
2022/12/21 01:58:30;;;;;;;24.10;11.53;;;8.70;99.90;;;;;;5053961;28;20599;-55
2022/12/21 02:00:58;;;;;;;24.40;11.77;;;8.60;99.90;;;;;;5053681;28;20389;-55
2022/12/21 02:03:29;;;;;;;28.37;12.63;;;8.70;99.90;;;;;;5052452;28;20433;-55
2022/12/21 02:06:07;;;;;;;28.00;12.50;;;8.60;99.90;;;;;;5053915;28;20405;-55
2022/12/21 02:08:33;;;;;;;27.17;12.43;;;8.60;99.90;;;;;;5052162;28;20444;-55
2022/12/21 02:11:00;;;;;;;28.50;11.80;;;8.60;99.90;;;;;;5053684;28;21072;-56
2022/12/21 02:13:25;;;;;;;25.50;13.10;;;8.60;99.90;;;;;;5046543;28;20472;-55
2022/12/21 02:16:15;;;;;;;27.20;12.17;;;8.60;99.90;;;;;;5053641;28;20407;-57
2022/12/21 02:19:19;;;;;;;34.07;13.33;;;8.60;99.90;;;;;;5051937;28;20186;-55
2022/12/21 02:21:53;;;;;;;32.33;15.17;;;8.50;99.90;;;;;;5053519;28;20400;-55
2022/12/21 02:24:56;;;;;;;29.70;14.43;;;8.50;99.90;;;;;;5054670;28;20523;-55
2022/12/21 02:27:54;;;;;;;31.57;14.70;;;8.50;99.90;;;;;;5034753;28;20495;-56
2022/12/21 02:30:20;;;;;;;32.07;14.20;;;8.60;99.90;;;;;;5007714;28;20432;-55
2022/12/21 02:33:13;;;;;;;35.73;14.80;;;8.50;99.90;;;;;;5053301;28;20463;-55
2022/12/21 02:36:00;;;;;;;29.93;13.37;;;8.60;99.90;;;;;;5037170;28;20507;-55
2022/12/21 02:39:07;;;;;;;32.53;14.10;;;8.60;99.90;;;;;;5051186;28;20464;-55
2022/12/21 02:41:53;;;;;;;32.03;14.17;;;8.60;99.90;;;;;;5026752;28;20436;-55
2022/12/21 02:44:30;;;;;;;31.10;14.20;;;8.60;99.90;;;;;;5049076;28;20471;-55
2022/12/21 02:47:22;;;;;;;35.03;13.27;;;8.60;99.90;;;;;;5050628;28;20447;-55
2022/12/21 02:50:02;;;;;;;35.40;14.17;;;8.60;99.90;;;;;;5047218;28;20444;-55
2022/12/21 02:52:35;;;;;;;33.80;14.77;;;8.60;99.90;;;;;;5050115;28;20489;-55
2022/12/21 02:55:02;;;;;;;36.90;13.30;;;8.60;99.90;;;;;;5052154;28;20939;-55
2022/12/21 02:57:40;;;;;;;32.93;13.10;;;8.60;99.90;;;;;;5050298;28;20466;-55
2022/12/21 03:00:17;;;;;;;35.57;13.90;;;8.60;99.90;;;;;;5036337;28;20443;-56
2022/12/21 03:06:20;;;;;;;38.07;13.50;;;8.50;99.90;;;;;;5050181;28;20498;-55
2022/12/21 03:09:15;;;;;;;38.00;12.90;;;8.50;99.90;;;;;;5032038;28;20476;-55
2022/12/21 03:12:07;;;;;;;33.80;12.87;;;8.50;99.90;;;;;;5045215;28;20445;-55
2022/12/21 03:14:54;;;;;;;32.80;12.33;;;8.50;99.90;;;;;;5051676;28;20472;-55
2022/12/21 03:17:53;;;;;;;35.67;13.13;;;8.50;99.90;;;;;;5050187;28;20769;-55
2022/12/21 03:20:23;;;;;;;43.40;15.60;;;8.50;99.90;;;;;;5050385;28;20455;-55
2022/12/21 03:22:55;;;;;;;44.13;14.43;;;8.50;99.90;;;;;;5050809;28;20440;-55
2022/12/21 03:25:48;;;;;;;36.03;12.77;;;8.50;99.90;;;;;;5050882;28;20456;-55
2022/12/21 03:28:20;;;;;;;41.27;13.50;;;8.40;99.90;;;;;;5050413;28;20531;-54
2022/12/21 03:30:51;;;;;;;37.80;13.10;;;8.40;99.90;;;;;;5051581;28;20463;-56
2022/12/21 03:33:22;;;;;;;38.73;12.40;;;8.30;99.90;;;;;;5052180;28;21069;-55
2022/12/21 03:36:01;;;;;;;52.73;13.93;;;8.30;99.90;;;;;;5050064;28;20535;-54
2022/12/21 03:38:39;;;;;;;43.60;14.20;;;8.30;99.90;;;;;;5051566;28;20443;-55
2022/12/21 03:41:11;;;;;;;43.60;13.43;;;8.30;99.90;;;;;;5051417;28;21005;-55
2022/12/21 03:43:37;;;;;;;42.90;12.63;;;8.30;99.90;;;;;;5049864;28;20477;-55
2022/12/21 03:46:12;;;;;;;44.73;13.03;;;8.30;99.90;;;;;;5050464;28;20469;-55
2022/12/21 03:48:47;;;;;;;42.10;13.47;;;8.30;99.90;;;;;;5042845;28;20197;-55
2022/12/21 03:51:20;;;;;;;44.13;12.40;;;8.30;99.90;;;;;;5050491;28;20455;-54
2022/12/21 03:54:10;;;;;;;45.23;13.90;;;8.20;99.90;;;;;;5048945;28;20481;-54
2022/12/21 03:56:39;;;;;;;40.13;13.17;;;8.30;99.90;;;;;;5041794;28;20453;-54
2022/12/21 03:59:07;;;;;;;49.93;14.47;;;8.20;99.90;;;;;;5041958;28;20544;-54
2022/12/21 04:02:14;;;;;;;48.10;14.70;;;8.20;99.90;;;;;;5050738;28;20531;-54
2022/12/21 04:04:42;;;;;;;52.77;16.00;;;8.20;99.90;;;;;;5041483;28;20503;-54
2022/12/21 04:07:09;;;;;;;44.10;15.00;;;8.20;99.90;;;;;;5050539;28;20473;-54
2022/12/21 04:09:37;;;;;;;49.20;15.10;;;8.20;99.90;;;;;;5045054;28;20478;-54
2022/12/21 04:14:48;;;;;;;47.70;15.87;;;8.20;99.90;;;;;;5051032;28;20440;-54
2022/12/21 04:17:13;;;;;;;51.60;16.60;;;8.20;99.90;;;;;;5050576;28;20527;-54
2022/12/21 04:19:57;;;;;;;52.23;17.10;;;8.20;99.90;;;;;;5048751;28;20190;-54
2022/12/21 04:28:09;;;;;;;53.67;17.40;;;8.10;99.90;;;;;;5048716;28;20475;-55
2022/12/21 04:30:40;;;;;;;38.80;14.43;;;8.10;99.90;;;;;;5048910;28;21196;-54
2022/12/21 04:33:08;;;;;;;48.03;17.87;;;8.10;99.90;;;;;;5049810;28;20495;-54
2022/12/21 04:35:34;;;;;;;45.20;16.03;;;8.10;99.90;;;;;;5035474;28;21126;-54
2022/12/21 04:38:00;;;;;;;44.13;15.30;;;8.00;99.90;;;;;;5050494;28;20475;-54
2022/12/21 04:40:26;;;;;;;46.70;16.60;;;8.00;99.90;;;;;;5049554;28;20436;-55
2022/12/21 04:42:52;;;;;;;41.07;15.87;;;8.00;99.90;;;;;;5050431;28;20409;-55
2022/12/21 04:45:18;;;;;;;44.03;17.00;;;8.00;99.90;;;;;;5041820;28;21254;-54
2022/12/21 04:47:43;;;;;;;52.00;17.40;;;7.90;99.90;;;;;;5049223;28;20264;-54
2022/12/21 04:50:09;;;;;;;43.13;17.13;;;7.90;99.90;;;;;;5015289;28;20540;-54
2022/12/21 04:52:35;;;;;;;53.10;17.70;;;7.90;99.90;;;;;;5044918;28;20217;-55
2022/12/21 04:55:02;;;;;;;50.63;18.30;;;7.90;99.90;;;;;;5049439;28;20452;-54
2022/12/21 04:57:28;;;;;;;47.10;17.23;;;7.80;99.90;;;;;;5049454;28;20699;-54
2022/12/21 04:59:54;;;;;;;50.33;18.10;;;7.80;99.90;;;;;;5050213;28;20440;-54
2022/12/21 05:02:20;;;;;;;58.57;19.47;;;7.80;99.90;;;;;;5045414;28;20440;-54
2022/12/21 05:04:45;;;;;;;52.93;16.80;;;7.80;99.90;;;;;;5053842;28;20186;-54
2022/12/21 05:07:11;;;;;;;42.27;16.57;;;7.90;99.90;;;;;;5054222;28;20194;-54
2022/12/21 05:09:36;;;;;;;44.73;15.60;;;7.90;99.90;;;;;;5049458;28;20186;-55
2022/12/21 05:12:02;;;;;;;59.37;18.43;;;7.90;99.90;;;;;;5042436;28;20186;-55
2022/12/21 05:14:28;;;;;;;48.50;15.27;;;7.90;99.90;;;;;;5052426;28;20206;-54
2022/12/21 05:16:53;;;;;;;53.00;17.10;;;7.80;99.90;;;;;;5054119;28;20185;-54
2022/12/21 05:19:19;;;;;;;53.13;17.77;;;7.80;99.90;;;;;;5046696;28;20198;-55
2022/12/21 05:21:45;;;;;;;55.20;16.47;;;7.70;99.90;;;;;;5052918;28;20186;-55
2022/12/21 05:24:11;;;;;;;58.50;16.60;;;7.80;99.90;;;;;;5052489;28;20220;-54
2022/12/21 05:26:37;;;;;;;56.20;16.30;;;7.70;99.90;;;;;;5053679;28;20441;-54
2022/12/21 05:29:03;;;;;;;62.13;16.73;;;7.70;99.90;;;;;;5053733;28;20191;-54
2022/12/21 05:31:29;;;;;;;60.50;17.60;;;7.70;99.90;;;;;;5052320;28;20530;-54
2022/12/21 05:33:55;;;;;;;66.83;15.40;;;7.80;99.90;;;;;;5052851;28;20496;-54
2022/12/21 05:36:21;;;;;;;55.57;16.60;;;7.70;99.90;;;;;;5053010;28;20476;-55
2022/12/21 05:38:46;;;;;;;127.53;17.53;;;7.70;99.90;;;;;;5043405;28;20178;-54
2022/12/21 05:41:15;;;;;;;57.93;14.50;;;7.70;99.90;;;;;;5053911;28;20198;-54
2022/12/21 05:43:41;;;;;;;131.53;19.30;;;7.60;99.90;;;;;;5053716;28;20178;-54
2022/12/21 05:46:09;;;;;;;130.50;15.90;;;7.60;99.90;;;;;;5052681;28;20480;-54
2022/12/21 05:48:35;;;;;;;167.90;19.63;;;7.60;99.90;;;;;;5053382;28;20448;-54
2022/12/21 05:51:12;;;;;;;164.63;20.50;;;7.70;99.90;;;;;;5036059;28;20428;-55
2022/12/21 05:53:43;;;;;;;217.30;19.80;;;7.70;99.90;;;;;;5050670;28;20205;-54
2022/12/21 05:56:09;;;;;;;219.83;21.33;;;7.60;99.90;;;;;;5053889;28;20493;-54
2022/12/21 05:58:35;;;;;;;89.77;16.07;;;7.60;99.90;;;;;;5052602;28;21214;-54
2022/12/21 06:01:06;;;;;;;191.43;20.50;;;7.60;99.90;;;;;;5052196;28;20436;-54
2022/12/21 06:03:33;;;;;;;110.57;16.33;;;7.60;99.90;;;;;;5052389;28;20190;-54
2022/12/21 06:06:10;;;;;;;84.73;17.00;;;7.60;99.90;;;;;;5043283;28;20429;-54
2022/12/21 06:08:35;;;;;;;180.60;21.57;;;7.60;99.90;;;;;;5036151;28;20459;-54
2022/12/21 06:11:16;;;;;;;97.63;17.53;;;7.60;99.90;;;;;;5044948;28;20449;-54
2022/12/21 06:13:42;;;;;;;89.80;15.80;;;7.60;99.90;;;;;;5050874;28;20218;-54
2022/12/21 06:16:19;;;;;;;75.40;17.13;;;7.60;99.90;;;;;;5051325;28;21131;-54
2022/12/21 06:18:45;;;;;;;85.03;16.97;;;7.60;99.90;;;;;;5051009;28;20444;-54
2022/12/21 06:21:13;;;;;;;84.53;16.63;;;7.60;99.90;;;;;;5051198;28;20450;-54
2022/12/21 06:23:39;;;;;;;72.20;16.80;;;7.60;99.90;;;;;;5051355;28;20248;-54
2022/12/21 06:26:07;;;;;;;115.90;17.40;;;7.50;99.90;;;;;;5050027;28;20444;-54
2022/12/21 06:28:33;;;;;;;55.27;15.60;;;7.50;99.90;;;;;;5049559;28;20489;-54
2022/12/21 06:31:10;;;;;;;82.80;16.40;;;7.50;99.90;;;;;;5052317;28;20425;-55
2022/12/21 06:33:36;;;;;;;64.73;15.07;;;7.50;99.90;;;;;;5052310;28;20495;-54
2022/12/21 06:36:03;;;;;;;56.90;13.60;;;7.50;99.90;;;;;;5051525;28;20441;-55
2022/12/21 06:38:30;;;;;;;41.90;14.57;;;7.50;99.90;;;;;;5051967;28;20441;-54
2022/12/21 06:40:58;;;;;;;55.77;14.77;;;7.50;99.90;;;;;;5051510;28;20817;-54
2022/12/21 06:43:26;;;;;;;66.20;15.30;;;7.50;99.90;;;;;;5052049;28;20420;-54
2022/12/21 06:45:59;;;;;;;133.63;16.30;;;7.40;99.90;;;;;;5050401;28;20448;-54
2022/12/21 06:48:26;;;;;;;109.13;19.20;;;7.30;99.90;;;;;;5050499;28;20447;-53
2022/12/21 06:50:57;;;;;;;122.47;18.80;;;7.30;99.90;;;;;;5052716;28;20445;-54
2022/12/21 06:53:25;;;;;;;99.13;14.60;;;7.30;99.90;;;;;;5052712;28;20456;-54
2022/12/21 06:55:58;;;;;;;76.57;15.37;;;7.30;99.90;;;;;;5052931;28;21029;-54
2022/12/21 06:58:24;;;;;;;104.40;14.43;;;7.20;99.90;;;;;;5032308;28;20538;-54
2022/12/21 07:00:49;;;;;;;118.70;17.90;;;7.20;99.90;;;;;;5052282;28;20469;-53
2022/12/21 07:03:15;;;;;;;153.27;17.57;;;7.20;99.90;;;;;;5051730;28;20201;-54
2022/12/21 07:05:41;;;;;;;134.40;17.53;;;7.20;99.90;;;;;;5051467;28;20444;-53
2022/12/21 07:08:07;;;;;;;77.10;14.93;;;7.20;99.90;;;;;;5046766;28;20440;-53
2022/12/21 07:10:33;;;;;;;73.50;15.20;;;7.20;99.90;;;;;;5051852;28;20555;-59
2022/12/21 07:12:59;;;;;;;110.17;16.67;;;7.20;99.90;;;;;;5051196;28;20759;-53
2022/12/21 07:15:24;;;;;;;67.90;14.33;;;7.10;99.90;;;;;;5052454;28;20261;-53
2022/12/21 07:17:50;;;;;;;132.30;17.97;;;7.20;99.90;;;;;;5048902;28;20467;-53
2022/12/21 07:20:15;;;;;;;74.40;16.20;;;7.10;99.90;;;;;;5050028;28;20243;-53
2022/12/21 07:22:41;;;;;;;70.77;15.60;;;7.10;99.90;;;;;;5051898;28;20174;-53
2022/12/21 07:25:07;;;;;;;79.43;16.33;;;7.10;99.90;;;;;;5051719;28;20186;-53
2022/12/21 07:27:32;;;;;;;78.73;16.40;;;7.10;99.90;;;;;;5052096;28;20695;-53
2022/12/21 07:29:58;;;;;;;116.40;18.50;;;7.10;99.90;;;;;;5051381;28;20268;-53
2022/12/21 07:32:23;;;;;;;137.20;18.20;;;7.10;99.90;;;;;;5050934;28;20197;-53
2022/12/21 07:34:49;;;;;;;129.03;19.00;;;7.10;99.90;;;;;;5050750;28;20182;-54
2022/12/21 07:37:14;;;;;;;85.40;16.50;;;7.10;99.90;;;;;;5030525;28;20183;-53
2022/12/21 07:39:40;;;;;;;78.67;16.70;;;7.10;99.90;;;;;;5047608;28;20179;-53
2022/12/21 07:42:05;;;;;;;121.07;20.13;;;7.10;99.90;;;;;;5055988;28;20186;-53
2022/12/21 07:44:31;;;;;;;78.67;18.90;;;7.10;99.90;;;;;;5051762;28;20216;-53
2022/12/21 07:46:57;;;;;;;84.83;18.00;;;7.10;99.90;;;;;;5051793;28;20190;-53
2022/12/21 07:49:23;;;;;;;65.17;16.73;;;7.10;99.90;;;;;;5051651;28;20186;-53
2022/12/21 07:51:48;;;;;;;64.67;16.27;;;7.10;99.90;;;;;;5051498;28;20181;-53
2022/12/21 07:54:14;;;;;;;75.73;16.70;;;7.20;99.90;;;;;;5040122;28;20788;-53
2022/12/21 07:56:40;;;;;;;71.00;16.10;;;7.20;99.90;;;;;;5031801;28;20643;-53
2022/12/21 07:59:06;;;;;;;161.37;20.23;;;7.20;99.90;;;;;;5038761;28;20445;-54
2022/12/21 08:01:31;;;;;;;56.80;16.37;;;7.20;99.90;;;;;;5050766;28;20580;-53
2022/12/21 08:04:00;;;;;;;64.17;16.33;;;7.10;99.90;;;;;;5051207;28;20186;-53
2022/12/21 08:06:25;;;;;;;49.80;15.10;;;7.10;99.90;;;;;;5051468;28;20659;-53
2022/12/21 08:08:51;;;;;;;61.43;15.97;;;7.20;99.90;;;;;;5051666;28;20436;-53
2022/12/21 08:11:19;;;;;;;94.27;18.53;;;7.20;99.90;;;;;;5039499;28;20198;-53
2022/12/21 08:13:46;;;;;;;51.03;15.50;;;7.20;99.90;;;;;;5031639;28;20288;-53
2022/12/21 08:16:13;;;;;;;63.33;17.27;;;7.20;99.90;;;;;;5046762;28;20410;-53
2022/12/21 08:18:39;;;;;;;121.90;20.60;;;7.20;99.90;;;;;;5048371;28;20409;-53
2022/12/21 08:21:05;;;;;;;88.43;19.50;;;7.30;99.90;;;;;;5051348;28;20827;-53
2022/12/21 08:23:31;;;;;;;68.67;19.43;;;7.20;99.90;;;;;;5050545;28;20186;-53
2022/12/21 08:26:04;;;;;;;88.43;21.03;;;7.20;99.90;;;;;;5029052;28;20256;-53
2022/12/21 08:28:30;;;;;;;76.60;20.70;;;7.30;99.90;;;;;;5047854;28;20238;-53
2022/12/21 08:31:07;;;;;;;102.43;21.40;;;7.30;99.90;;;;;;5051014;28;20433;-54
2022/12/21 08:33:33;;;;;;;109.47;22.10;;;7.20;99.90;;;;;;5050170;28;20569;-53
2022/12/21 08:35:59;;;;;;;84.73;20.93;;;7.20;99.90;;;;;;5054998;28;20425;-53
2022/12/21 08:38:25;;;;;;;107.80;22.30;;;7.20;99.90;;;;;;5049664;28;20443;-53
2022/12/21 08:40:51;;;;;;;70.57;19.97;;;7.30;99.90;;;;;;5041183;28;20270;-53
2022/12/21 08:43:17;;;;;;;76.33;20.67;;;7.30;99.90;;;;;;5049523;28;20189;-54
2022/12/21 08:45:44;;;;;;;65.50;19.57;;;7.30;99.90;;;;;;5050135;28;20431;-53
2022/12/21 08:48:09;;;;;;;62.00;18.37;;;7.40;99.90;;;;;;5050819;28;20427;-53
2022/12/21 08:50:35;;;;;;;68.13;17.83;;;7.40;99.90;;;;;;5045787;28;20432;-54
2022/12/21 08:53:00;;;;;;;60.27;17.50;;;7.40;99.90;;;;;;5048878;28;20532;-53
2022/12/21 08:55:26;;;;;;;75.53;18.60;;;7.40;99.90;;;;;;5049354;28;20197;-54
2022/12/21 08:57:52;;;;;;;82.50;17.97;;;7.40;99.90;;;;;;5045886;28;20252;-53
2022/12/21 09:00:17;;;;;;;67.20;19.27;;;7.40;99.90;;;;;;5048145;28;20659;-53
2022/12/21 09:02:43;;;;;;;57.70;18.20;;;7.50;99.90;;;;;;5047768;28;20256;-53
2022/12/21 09:05:08;;;;;;;58.13;16.30;;;7.50;99.90;;;;;;5050687;28;20571;-53
2022/12/21 09:07:35;;;;;;;57.73;16.70;;;7.50;99.90;;;;;;5050725;28;20228;-53
2022/12/21 09:10:00;;;;;;;62.50;17.97;;;7.50;99.90;;;;;;5042473;28;20286;-53
2022/12/21 09:12:26;;;;;;;54.33;16.63;;;7.40;99.90;;;;;;5030885;28;20551;-54
2022/12/21 09:14:52;;;;;;;60.97;16.07;;;7.40;99.90;;;;;;5038381;28;20300;-54
2022/12/21 09:17:17;;;;;;;45.10;14.27;;;7.40;99.90;;;;;;5049191;28;20555;-54
2022/12/21 09:19:43;;;;;;;49.47;15.37;;;7.40;99.90;;;;;;5047320;28;20205;-54
2022/12/21 09:22:09;;;;;;;51.70;15.40;;;7.30;99.90;;;;;;5050368;28;20190;-53
2022/12/21 09:24:34;;;;;;;53.17;16.00;;;7.30;99.90;;;;;;5049980;28;20194;-54
2022/12/21 09:27:00;;;;;;;46.77;15.90;;;7.30;99.90;;;;;;5049615;28;20245;-54
2022/12/21 09:29:25;;;;;;;52.53;17.03;;;7.30;99.90;;;;;;5049598;28;20650;-53
2022/12/21 09:31:51;;;;;;;45.70;16.67;;;7.40;99.90;;;;;;5048803;28;20183;-53
2022/12/21 09:34:18;;;;;;;62.67;17.30;;;7.50;99.90;;;;;;5048882;28;20221;-54
2022/12/21 09:36:44;;;;;;;55.40;17.27;;;7.40;99.90;;;;;;5049601;28;20256;-53
2022/12/21 09:39:09;;;;;;;49.23;17.20;;;7.50;99.90;;;;;;5048884;28;20946;-54
2022/12/21 09:41:44;;;;;;;55.93;17.43;;;7.60;99.90;;;;;;5049030;28;20447;-53
2022/12/21 09:44:32;;;;;;;64.53;17.73;;;7.50;99.90;;;;;;5050299;28;20185;-53
2022/12/21 09:47:01;;;;;;;55.63;18.60;;;7.60;99.90;;;;;;5049846;28;20444;-53
2022/12/21 09:49:39;;;;;;;57.37;18.20;;;7.60;99.90;;;;;;5051885;28;20933;-54
2022/12/21 09:52:12;;;;;;;61.73;17.83;;;7.60;99.90;;;;;;5053945;28;20416;-53
2022/12/21 09:55:04;;;;;;;73.47;18.50;;;7.50;99.90;;;;;;5053278;28;20474;-54
2022/12/21 09:57:34;;;;;;;57.20;17.97;;;7.60;99.90;;;;;;5053410;28;20925;-54
2022/12/21 10:00:02;;;;;;;61.97;17.93;;;7.60;99.90;;;;;;5053470;28;20458;-54
2022/12/21 10:02:58;;;;;;;63.67;19.20;;;7.70;99.90;;;;;;5053819;28;20436;-54
2022/12/21 10:05:32;;;;;;;64.27;18.60;;;7.60;99.90;;;;;;5052441;28;20497;-54
2022/12/21 10:08:04;;;;;;;58.57;17.90;;;7.60;99.90;;;;;;5053129;28;20454;-54
2022/12/21 10:10:44;;;;;;;60.00;19.20;;;7.70;99.90;;;;;;5035549;28;20452;-54
2022/12/21 10:13:19;;;;;;;63.53;18.70;;;7.70;99.90;;;;;;5053652;28;20472;-54
2022/12/21 10:15:59;;;;;;;61.07;18.80;;;7.80;99.90;;;;;;5053084;28;20497;-54
2022/12/21 10:18:47;;;;;;;68.27;19.40;;;7.80;99.90;;;;;;5053384;28;20840;-54
2022/12/21 10:21:41;;;;;;;64.30;21.00;;;7.80;99.90;;;;;;5033614;28;20421;-54
2022/12/21 10:24:24;;;;;;;70.73;20.10;;;7.80;99.90;;;;;;5045387;28;20467;-54
2022/12/21 10:26:59;;;;;;;67.73;21.40;;;7.70;99.90;;;;;;5052703;28;20476;-54
2022/12/21 10:29:34;;;;;;;73.13;19.90;;;7.80;99.90;;;;;;5053493;28;20424;-54
2022/12/21 10:32:01;;;;;;;77.63;21.87;;;7.90;99.90;;;;;;5052830;28;20454;-54
2022/12/21 10:34:33;;;;;;;63.40;20.20;;;7.80;99.90;;;;;;5053429;28;20465;-54
2022/12/21 10:37:01;;;;;;;73.50;20.50;;;7.80;99.90;;;;;;5034719;28;20953;-54
2022/12/21 10:39:29;;;;;;;74.57;19.03;;;7.80;99.90;;;;;;5051692;28;20781;-54
2022/12/21 10:42:19;;;;;;;69.67;19.70;;;7.80;99.90;;;;;;5053349;28;20397;-54
2022/12/21 10:44:46;;;;;;;64.07;19.97;;;7.90;99.90;;;;;;5052576;28;20498;-54
2022/12/21 10:47:23;;;;;;;71.43;21.07;;;7.90;99.90;;;;;;5053151;28;20961;-54
2022/12/21 10:50:13;;;;;;;70.17;21.53;;;8.00;99.90;;;;;;5047263;28;20470;-54
2022/12/21 10:52:44;;;;;;;76.13;23.00;;;8.00;99.90;;;;;;5052759;28;20428;-54
2022/12/21 10:55:18;;;;;;;63.33;20.60;;;7.90;99.90;;;;;;5052248;28;20444;-54
2022/12/21 10:57:55;;;;;;;82.00;23.23;;;8.00;99.90;;;;;;5052138;28;20505;-54
2022/12/21 11:00:30;;;;;;;72.80;21.50;;;7.90;99.90;;;;;;5052015;28;20444;-54
2022/12/21 11:02:59;;;;;;;81.70;23.47;;;8.00;99.90;;;;;;5052250;28;20448;-54
2022/12/21 11:05:35;;;;;;;73.23;23.13;;;8.00;99.90;;;;;;5052257;28;20841;-55
2022/12/21 11:08:12;;;;;;;77.70;23.43;;;8.00;99.90;;;;;;5047173;28;20519;-54
2022/12/21 11:10:44;;;;;;;80.27;22.97;;;8.10;99.90;;;;;;5053009;28;20460;-54
2022/12/21 11:13:12;;;;;;;69.10;22.47;;;8.10;99.90;;;;;;5052600;28;20457;-54
2022/12/21 11:15:39;;;;;;;77.03;22.23;;;8.10;99.90;;;;;;5052564;28;21062;-54
2022/12/21 11:18:30;;;;;;;74.63;22.70;;;8.20;99.90;;;;;;5052660;28;20413;-54
2022/12/21 11:20:56;;;;;;;66.00;19.77;;;8.20;99.90;;;;;;5052397;28;20445;-55
2022/12/21 11:23:22;;;;;;;64.27;21.00;;;8.20;99.90;;;;;;5034038;28;20463;-56
2022/12/21 11:25:48;;;;;;;71.13;22.90;;;8.20;99.90;;;;;;5051992;28;20479;-54
2022/12/21 11:28:18;;;;;;;61.87;21.53;;;8.10;99.90;;;;;;5045664;28;20242;-54
2022/12/21 11:30:55;;;;;;;70.30;23.93;;;8.10;99.90;;;;;;5051714;28;20252;-55
2022/12/21 11:33:21;;;;;;;72.87;24.07;;;8.20;99.90;;;;;;5052232;28;20457;-55
2022/12/21 11:36:07;;;;;;;66.37;22.40;;;8.20;99.90;;;;;;5051798;28;20451;-55
2022/12/21 11:38:36;;;;;;;63.23;20.47;;;8.40;99.90;;;;;;5052089;28;20435;-55
2022/12/21 11:41:07;;;;;;;76.60;23.33;;;8.50;99.90;;;;;;5050826;28;20433;-55
2022/12/21 11:43:46;;;;;;;66.60;23.30;;;8.80;99.90;;;;;;5034034;28;20421;-56
2022/12/21 11:46:53;;;;;;;59.93;20.57;;;9.20;99.90;;;;;;5051196;28;20443;-55
2022/12/21 11:49:44;;;;;;;56.20;19.60;;;9.50;99.90;;;;;;4973185;28;20545;-55
2022/12/21 11:52:27;;;;;;;54.27;19.40;;;9.40;1.00;;;;;;5030105;28;20434;-55
2022/12/21 11:55:10;;;;;;;48.00;19.07;;;9.10;1.00;;;;;;5031428;28;20927;-55
2022/12/21 11:57:41;;;;;;;47.33;17.70;;;9.00;1.00;;;;;;5044294;28;21257;-55
2022/12/21 12:00:29;;;;;;;43.77;18.50;;;8.80;1.00;;;;;;5034092;28;20429;-55
2022/12/21 12:03:09;;;;;;;54.13;20.60;;;8.70;1.00;;;;;;5034602;28;20457;-55
2022/12/21 12:05:59;;;;;;;57.03;19.10;;;8.60;1.00;;;;;;5045080;28;20933;-56
2022/12/21 12:08:55;;;;;;;42.53;18.57;;;8.60;1.00;;;;;;5050737;28;20423;-55
2022/12/21 12:11:39;;;;;;;46.70;19.50;;;8.50;1.00;;;;;;5031654;28;20422;-55
2022/12/21 12:14:07;;;;;;;49.43;20.17;;;8.40;1.00;;;;;;5038694;28;20472;-55
2022/12/21 12:16:39;;;;;;;51.97;21.17;;;8.40;1.00;;;;;;5051314;28;20496;-55
2022/12/21 12:19:26;;;;;;;50.47;20.07;;;8.40;1.00;;;;;;5046157;28;20447;-56
2022/12/21 12:21:57;;;;;;;48.77;21.00;;;8.30;1.00;;;;;;5042889;28;20883;-55
2022/12/21 12:24:53;;;;;;;57.97;22.77;;;8.30;1.00;;;;;;5050607;28;20507;-63
2022/12/21 12:27:18;;;;;;;48.90;20.90;;;8.20;1.00;;;;;;5030583;28;21024;-56
2022/12/21 12:30:24;;;;;;;54.97;21.30;;;8.20;1.00;;;;;;5041519;28;20447;-55
2022/12/21 12:33:10;;;;;;;50.60;21.60;;;8.20;1.00;;;;;;5030172;28;20240;-56
2022/12/21 12:36:07;;;;;;;61.20;22.40;;;8.20;1.00;;;;;;5032986;28;20448;-55
2022/12/21 12:39:07;;;;;;;56.70;21.13;;;8.20;1.00;;;;;;5044958;28;20484;-55
2022/12/21 12:41:36;;;;;;;54.67;23.50;;;8.10;1.00;;;;;;5049836;28;20496;-55
2022/12/21 12:44:12;;;;;;;56.77;23.20;;;8.20;1.00;;;;;;5030106;28;20931;-55
2022/12/21 12:47:00;;;;;;;60.33;23.50;;;8.10;1.00;;;;;;5029601;28;20405;-55
2022/12/21 12:49:53;;;;;;;55.47;22.27;;;8.20;1.00;;;;;;5030226;28;20412;-56
2022/12/21 12:52:33;;;;;;;51.47;22.20;;;8.10;1.00;;;;;;5036631;28;20444;-55
2022/12/21 12:55:09;;;;;;;60.97;22.40;;;8.10;1.00;;;;;;5046895;28;21183;-56
2022/12/21 12:57:50;;;;;;;62.10;21.77;;;8.10;1.00;;;;;;5045521;28;20527;-55
2022/12/21 13:00:18;;;;;;;59.70;22.93;;;8.00;1.00;;;;;;5037737;28;20439;-56
2022/12/21 13:03:21;;;;;;;68.83;23.83;;;8.00;1.00;;;;;;5049682;28;20512;-55
2022/12/21 13:06:04;;;;;;;55.93;23.47;;;8.00;1.00;;;;;;5048683;28;20893;-55
2022/12/21 13:09:14;;;;;;;58.97;22.00;;;8.00;1.00;;;;;;5048160;28;20447;-55
2022/12/21 13:11:49;;;;;;;53.83;21.57;;;8.00;1.00;;;;;;4987496;28;20474;-55
2022/12/21 13:14:37;;;;;;;60.23;24.13;;;7.90;1.00;;;;;;4988305;28;20470;-55
2022/12/21 13:17:32;;;;;;;73.50;25.20;;;7.90;1.00;;;;;;5019229;28;20429;-55